Terminal Aerodrome Forecast
Issued by NWS

Home | Current Version | Previous Version | Text Only | Print | Product List | Glossary On
Versions: 1 2 3 4 5 6 7 8 9 10 11 12 13 14 15
000
FTUS46 KPDT 161700
TAFDLS
TAF
KDLS 161736Z 1618/1718 30009KT P6SM VCSH OVC060
     FM162100 31012G20KT P6SM SCT070 BKN100
     FM170300 31011KT P6SM VCSH BKN050 OVC090
     FM170600 30006KT P6SM VCSH BKN040 OVC050 PROB30 1714/1718
      28004KT 6SM -SHRA BKN030 OVC040=

USA.gov is the U.S. government's official web portal to all federal, state and local government web resources and services.